Time;durP1;ratioP1;P1;durP2;ratioP2;P2;SDS_P1;SDS_P2;PMS_P1;PMS_P2;Temp;Humidity;BMP_temperature;BMP_pressure;BME280_temperature;BME280_humidity;BME280_pressure;Samples;Min_cycle;Max_cycle;Signal;HPM_P1;HPM_P2
2021/03/10 00:02:24;;;;;;;23.00;11.00;;;4.00;99.90;;;;;;4926453;29;20036;-76
2021/03/10 00:04:50;;;;;;;29.65;11.82;;;3.90;99.90;;;;;;4925864;29;20424;-77
2021/03/10 00:07:15;;;;;;;31.10;10.45;;;3.90;99.90;;;;;;4926041;29;20033;-75
2021/03/10 00:09:41;;;;;;;40.08;12.57;;;3.90;99.90;;;;;;4912067;29;20197;-77
2021/03/10 00:12:07;;;;;;;29.20;11.20;;;3.90;99.90;;;;;;4926664;29;20029;-77
2021/03/10 00:14:33;;;;;;;43.05;13.13;;;3.90;99.90;;;;;;4911023;29;20045;-75
2021/03/10 00:16:59;;;;;;;37.13;12.90;;;3.90;99.90;;;;;;4925922;29;20028;-76
2021/03/10 00:19:26;;;;;;;26.02;10.52;;;3.90;99.90;;;;;;4926020;29;20033;-76
2021/03/10 00:21:51;;;;;;;40.20;12.60;;;3.90;99.90;;;;;;4911910;29;20032;-76
2021/03/10 00:24:17;;;;;;;22.38;10.13;;;3.90;99.90;;;;;;4925936;29;20040;-75
2021/03/10 00:26:44;;;;;;;33.78;10.60;;;3.90;99.90;;;;;;4926612;29;20029;-75
2021/03/10 00:29:10;;;;;;;42.35;12.73;;;3.90;99.90;;;;;;4915508;29;20025;-74
2021/03/10 00:31:35;;;;;;;24.73;10.15;;;3.90;99.90;;;;;;4928806;29;20033;-75
2021/03/10 00:34:01;;;;;;;36.80;12.50;;;3.90;99.90;;;;;;4931142;29;20038;-77
2021/03/10 00:36:27;;;;;;;34.88;12.05;;;3.90;99.90;;;;;;4930935;29;20032;-75
2021/03/10 00:38:52;;;;;;;30.15;12.25;;;3.90;99.90;;;;;;4922731;29;20509;-75
2021/03/10 00:41:18;;;;;;;30.85;12.13;;;3.90;99.90;;;;;;4912110;29;20029;-76
2021/03/10 00:43:43;;;;;;;47.45;11.88;;;3.90;99.90;;;;;;4926202;29;20127;-76
2021/03/10 00:46:09;;;;;;;38.85;13.02;;;3.90;99.90;;;;;;4911854;29;20060;-76
2021/03/10 00:48:35;;;;;;;33.88;11.82;;;4.00;99.90;;;;;;4912000;29;20041;-76
2021/03/10 00:51:00;;;;;;;31.23;12.48;;;4.10;99.90;;;;;;4911673;29;20028;-76
2021/03/10 00:53:26;;;;;;;56.05;11.95;;;4.00;99.90;;;;;;4914220;29;20105;-77
2021/03/10 00:55:51;;;;;;;26.00;10.82;;;3.90;99.90;;;;;;4930730;29;20035;-76
2021/03/10 00:58:17;;;;;;;36.05;12.35;;;3.90;99.90;;;;;;4930576;29;20431;-75
2021/03/10 01:00:42;;;;;;;28.83;11.93;;;3.90;99.90;;;;;;4929156;29;20024;-75
2021/03/10 01:03:09;;;;;;;28.88;11.75;;;4.00;99.90;;;;;;4930091;29;20114;-75
2021/03/10 01:05:34;;;;;;;23.35;9.25;;;4.00;99.90;;;;;;4929080;29;20035;-75
2021/03/10 01:08:00;;;;;;;31.23;11.43;;;4.00;99.90;;;;;;4931003;29;20044;-75
2021/03/10 01:10:26;;;;;;;39.72;11.77;;;4.00;99.90;;;;;;4930577;29;20043;-75
2021/03/10 01:12:51;;;;;;;34.00;11.48;;;4.00;99.90;;;;;;4930147;29;20059;-75
2021/03/10 01:15:20;;;;;;;34.08;11.77;;;4.00;99.90;;;;;;4917824;29;20067;-75
2021/03/10 01:17:46;;;;;;;32.75;9.75;;;4.00;99.90;;;;;;4911182;29;20029;-76
2021/03/10 01:20:18;;;;;;;41.03;11.45;;;4.00;99.90;;;;;;4911601;29;20055;-77
2021/03/10 01:22:44;;;;;;;35.83;12.20;;;4.00;99.90;;;;;;4911263;29;20029;-76
2021/03/10 01:25:10;;;;;;;42.60;14.00;;;3.90;99.90;;;;;;4909909;29;20032;-76
2021/03/10 01:27:36;;;;;;;36.47;11.65;;;3.90;99.90;;;;;;4911060;29;20040;-76
2021/03/10 01:30:05;;;;;;;57.28;13.02;;;3.90;99.90;;;;;;4911188;29;20037;-75
2021/03/10 01:32:31;;;;;;;51.42;13.98;;;3.90;99.90;;;;;;4925714;29;20099;-75
2021/03/10 01:34:56;;;;;;;24.88;10.43;;;3.90;99.90;;;;;;4909591;29;20036;-76
2021/03/10 01:37:22;;;;;;;27.60;10.90;;;3.90;99.90;;;;;;4910873;29;20039;-75
2021/03/10 01:39:48;;;;;;;29.30;11.80;;;3.90;99.90;;;;;;4910655;29;20048;-76
2021/03/10 01:42:14;;;;;;;22.58;10.15;;;3.90;99.90;;;;;;4910668;29;20036;-76
2021/03/10 01:44:39;;;;;;;25.13;10.20;;;3.90;99.90;;;;;;4910798;29;20041;-76
2021/03/10 01:47:08;;;;;;;31.25;11.63;;;3.90;99.90;;;;;;4925484;29;20028;-76
2021/03/10 01:49:35;;;;;;;40.67;11.82;;;3.90;99.90;;;;;;4910710;29;20039;-75
2021/03/10 01:52:01;;;;;;;31.13;12.20;;;4.00;99.90;;;;;;4910788;29;20057;-77
2021/03/10 01:54:27;;;;;;;32.97;10.63;;;4.00;99.90;;;;;;4910658;29;20037;-76
2021/03/10 01:56:52;;;;;;;32.42;12.02;;;4.00;99.90;;;;;;4925056;29;20562;-74
2021/03/10 01:59:18;;;;;;;25.58;11.48;;;4.00;99.90;;;;;;4910514;29;20055;-75
2021/03/10 02:01:43;;;;;;;33.38;12.00;;;4.00;99.90;;;;;;4910318;29;20051;-76
2021/03/10 02:04:10;;;;;;;30.85;12.13;;;4.00;99.90;;;;;;4908908;29;20060;-75
2021/03/10 02:06:52;;;;;;;30.27;10.63;;;4.00;99.90;;;;;;4909554;29;20040;-75
2021/03/10 02:09:56;;;;;;;28.67;11.93;;;4.00;99.90;;;;;;4909436;29;20462;-75
2021/03/10 02:12:22;;;;;;;35.30;11.87;;;4.00;99.90;;;;;;4909420;29;20028;-75
2021/03/10 02:15:05;;;;;;;27.75;10.00;;;3.90;99.90;;;;;;4909481;29;20059;-76
2021/03/10 02:17:36;;;;;;;30.63;11.13;;;3.90;99.90;;;;;;4909584;29;20036;-75
2021/03/10 02:20:24;;;;;;;35.58;10.35;;;3.90;99.90;;;;;;4923901;29;20059;-75
2021/03/10 02:23:11;;;;;;;32.67;12.02;;;3.90;99.90;;;;;;4909163;29;20037;-75
2021/03/10 02:26:07;;;;;;;31.13;11.55;;;3.90;99.90;;;;;;4909411;29;20033;-76
2021/03/10 02:28:35;;;;;;;28.20;11.32;;;3.90;99.90;;;;;;4923582;29;20104;-76
2021/03/10 02:31:02;;;;;;;35.72;12.38;;;3.80;99.90;;;;;;4909280;29;20039;-75
2021/03/10 02:33:30;;;;;;;30.35;12.55;;;3.90;99.90;;;;;;4908018;29;20127;-75
2021/03/10 02:36:01;;;;;;;32.20;11.68;;;3.80;99.90;;;;;;4909032;29;20036;-76
2021/03/10 02:38:28;;;;;;;24.17;10.55;;;3.80;99.90;;;;;;4909147;29;20050;-76
2021/03/10 02:40:56;;;;;;;26.88;11.52;;;3.80;99.90;;;;;;4909148;29;20039;-75
2021/03/10 02:43:23;;;;;;;31.20;12.88;;;3.80;99.90;;;;;;4908824;29;20482;-76
2021/03/10 02:45:54;;;;;;;33.30;12.25;;;3.90;99.90;;;;;;4908848;29;20115;-76
2021/03/10 02:48:22;;;;;;;30.38;12.18;;;3.90;99.90;;;;;;4908872;29;20036;-76
2021/03/10 02:50:49;;;;;;;28.77;11.88;;;3.90;99.90;;;;;;4908849;29;20040;-76
2021/03/10 02:53:16;;;;;;;29.58;10.98;;;3.90;99.90;;;;;;4908728;29;20035;-75
2021/03/10 02:55:42;;;;;;;32.92;12.73;;;3.80;99.90;;;;;;4909043;29;20534;-74
2021/03/10 02:58:11;;;;;;;33.28;11.18;;;3.80;99.90;;;;;;4923314;29;20036;-76
2021/03/10 03:00:39;;;;;;;26.42;11.63;;;3.80;99.90;;;;;;4908731;29;20089;-75
2021/03/10 03:03:05;;;;;;;32.03;13.75;;;3.70;99.90;;;;;;4903142;29;590931;-74
2021/03/10 03:05:32;;;;;;;36.63;13.23;;;3.60;99.90;;;;;;4909321;29;20075;-76
2021/03/10 03:07:59;;;;;;;36.05;13.05;;;3.60;99.90;;;;;;4909374;29;20040;-75
2021/03/10 03:10:31;;;;;;;39.38;13.15;;;3.60;99.90;;;;;;4909522;29;20043;-77
2021/03/10 03:12:59;;;;;;;30.65;11.25;;;3.50;99.90;;;;;;4909556;29;20518;-76
2021/03/10 03:15:25;;;;;;;29.67;11.18;;;3.50;99.90;;;;;;4908860;29;20029;-75
2021/03/10 03:17:52;;;;;;;23.48;10.20;;;3.50;99.90;;;;;;4909366;29;20041;-75
2021/03/10 03:20:20;;;;;;;46.78;13.25;;;3.50;99.90;;;;;;4909291;29;20028;-75
2021/03/10 03:22:49;;;;;;;29.58;11.63;;;3.60;99.90;;;;;;4909052;29;20061;-75
2021/03/10 03:25:17;;;;;;;42.45;13.68;;;3.60;99.90;;;;;;4909222;29;20036;-74
2021/03/10 03:27:54;;;;;;;34.05;12.50;;;3.70;99.90;;;;;;4909311;29;20032;-75
2021/03/10 03:30:21;;;;;;;33.85;11.77;;;3.70;99.90;;;;;;4909653;29;20032;-74
2021/03/10 03:32:47;;;;;;;39.17;11.20;;;3.70;99.90;;;;;;4909324;29;20092;-76
2021/03/10 03:35:16;;;;;;;42.63;12.35;;;3.80;99.90;;;;;;4908995;29;20032;-74
2021/03/10 03:37:45;;;;;;;45.90;13.85;;;3.90;99.90;;;;;;4908995;29;20033;-75
2021/03/10 03:40:11;;;;;;;40.05;13.85;;;3.80;99.90;;;;;;4923460;29;20036;-75
2021/03/10 03:42:37;;;;;;;41.65;12.55;;;3.80;99.90;;;;;;4910507;29;20076;-74
2021/03/10 03:45:04;;;;;;;44.45;13.48;;;3.90;99.90;;;;;;4928224;29;20059;-75
2021/03/10 03:47:30;;;;;;;42.35;13.95;;;3.90;99.90;;;;;;4928261;29;20083;-74
2021/03/10 03:49:56;;;;;;;37.15;13.25;;;3.80;99.90;;;;;;4926698;29;20036;-75
2021/03/10 03:52:21;;;;;;;35.67;13.30;;;3.80;99.90;;;;;;4928216;29;20079;-75
2021/03/10 03:54:47;;;;;;;27.48;12.20;;;3.80;99.90;;;;;;4927810;29;20032;-75
2021/03/10 03:57:12;;;;;;;36.25;12.65;;;3.80;99.90;;;;;;4926546;29;20025;-74
2021/03/10 03:59:38;;;;;;;31.02;13.07;;;3.80;99.90;;;;;;4927937;29;20028;-75
2021/03/10 04:02:04;;;;;;;53.72;14.60;;;3.80;99.90;;;;;;4927821;29;20039;-76
2021/03/10 04:04:30;;;;;;;40.33;12.77;;;3.80;99.90;;;;;;4927937;29;20425;-75
2021/03/10 04:06:55;;;;;;;41.97;13.65;;;3.80;99.90;;;;;;4926237;29;20084;-75
2021/03/10 04:09:21;;;;;;;30.13;13.75;;;3.70;99.90;;;;;;4927886;29;20460;-75
2021/03/10 04:11:48;;;;;;;49.92;13.25;;;3.80;99.90;;;;;;4928001;29;20095;-76
2021/03/10 04:14:15;;;;;;;32.55;11.88;;;3.80;99.90;;;;;;4927689;29;20028;-75
2021/03/10 04:16:41;;;;;;;45.67;14.13;;;3.80;99.90;;;;;;4927613;29;20046;-75
2021/03/10 04:19:07;;;;;;;26.33;12.10;;;3.90;99.90;;;;;;4927949;29;20457;-76
2021/03/10 04:21:32;;;;;;;37.53;14.65;;;3.90;99.90;;;;;;4927763;29;20067;-76
2021/03/10 04:23:58;;;;;;;37.03;14.73;;;3.90;99.90;;;;;;4927760;29;20043;-76
2021/03/10 04:26:25;;;;;;;47.78;13.52;;;3.90;99.90;;;;;;4928074;29;20069;-76
2021/03/10 04:28:50;;;;;;;35.50;11.70;;;3.90;99.90;;;;;;4929863;29;20473;-75
2021/03/10 04:31:16;;;;;;;36.40;13.07;;;3.90;99.90;;;;;;4929855;29;20044;-75
2021/03/10 04:33:42;;;;;;;32.83;11.98;;;3.90;99.90;;;;;;4929529;29;20040;-76
2021/03/10 04:36:08;;;;;;;35.60;12.10;;;3.90;99.90;;;;;;4930873;29;20043;-76
2021/03/10 04:38:34;;;;;;;47.60;14.68;;;4.00;99.90;;;;;;4929612;29;20035;-76
2021/03/10 04:40:59;;;;;;;36.63;14.05;;;3.90;99.90;;;;;;4931085;29;20036;-75
2021/03/10 04:43:25;;;;;;;42.53;14.68;;;3.90;99.90;;;;;;4930738;29;20051;-75
2021/03/10 04:45:51;;;;;;;42.38;14.43;;;4.00;99.90;;;;;;4930584;29;20039;-76
2021/03/10 04:48:16;;;;;;;39.38;14.60;;;4.00;99.90;;;;;;4930864;29;20091;-74
2021/03/10 04:50:42;;;;;;;36.95;14.07;;;3.90;99.90;;;;;;4930562;29;20389;-76
2021/03/10 04:53:08;;;;;;;41.22;12.68;;;3.90;99.90;;;;;;4930751;29;20051;-75
2021/03/10 04:55:33;;;;;;;33.35;14.35;;;3.90;99.90;;;;;;4930809;29;20031;-77
2021/03/10 04:57:59;;;;;;;39.85;13.02;;;3.80;99.90;;;;;;4929337;29;20429;-75
2021/03/10 05:00:25;;;;;;;37.70;13.43;;;3.80;99.90;;;;;;4930655;29;20111;-74
2021/03/10 05:02:51;;;;;;;42.13;13.07;;;3.80;99.90;;;;;;4930075;29;20060;-75
2021/03/10 05:05:17;;;;;;;41.28;12.95;;;3.90;99.90;;;;;;4929037;29;20485;-76
2021/03/10 05:07:42;;;;;;;37.05;12.30;;;3.80;99.90;;;;;;4929079;29;20405;-76
2021/03/10 05:10:10;;;;;;;44.80;16.00;;;3.80;99.90;;;;;;4930292;29;20076;-74
2021/03/10 05:12:35;;;;;;;42.40;13.70;;;3.70;99.90;;;;;;4930381;29;20028;-76
2021/03/10 05:15:02;;;;;;;37.03;14.68;;;3.80;99.90;;;;;;4930214;29;20032;-76
2021/03/10 05:17:28;;;;;;;60.38;12.63;;;3.70;99.90;;;;;;4930351;29;20096;-75
2021/03/10 05:19:54;;;;;;;42.28;14.05;;;3.70;99.90;;;;;;4929867;29;20060;-76
2021/03/10 05:22:19;;;;;;;33.80;12.45;;;3.80;99.90;;;;;;4930046;29;20038;-76
2021/03/10 05:24:46;;;;;;;40.75;11.70;;;3.80;99.90;;;;;;4928586;29;20432;-76
2021/03/10 05:27:11;;;;;;;37.15;13.85;;;3.80;99.90;;;;;;4930023;29;20457;-76
2021/03/10 05:29:38;;;;;;;36.22;14.70;;;3.70;99.90;;;;;;4930263;29;20037;-75
2021/03/10 05:32:04;;;;;;;34.40;13.50;;;3.70;99.90;;;;;;4929919;29;20430;-76
2021/03/10 05:34:30;;;;;;;35.97;13.50;;;3.70;99.90;;;;;;4929114;29;20032;-77
2021/03/10 05:36:55;;;;;;;27.83;12.10;;;3.70;99.90;;;;;;4929886;29;20097;-76
2021/03/10 05:39:21;;;;;;;39.78;15.10;;;3.70;99.90;;;;;;4927580;29;20035;-76
2021/03/10 05:41:47;;;;;;;42.67;13.70;;;3.60;99.90;;;;;;4929679;29;20465;-75
2021/03/10 05:44:13;;;;;;;41.03;14.10;;;3.70;99.90;;;;;;4929529;29;20052;-74
2021/03/10 05:46:39;;;;;;;44.88;14.77;;;3.60;99.90;;;;;;4928420;29;20477;-75
2021/03/10 05:49:06;;;;;;;43.92;16.25;;;3.60;99.90;;;;;;4929622;29;20032;-76
2021/03/10 05:51:31;;;;;;;48.83;15.75;;;3.60;99.90;;;;;;4928348;29;20020;-77
2021/03/10 05:54:03;;;;;;;43.08;16.13;;;3.60;99.90;;;;;;4928302;29;20032;-74
2021/03/10 05:56:28;;;;;;;35.33;12.88;;;3.60;99.90;;;;;;4928369;29;20036;-74
2021/03/10 05:58:55;;;;;;;38.60;14.10;;;3.60;99.90;;;;;;4929513;29;20032;-74
2021/03/10 06:01:20;;;;;;;41.92;13.88;;;3.70;99.90;;;;;;4929374;29;20054;-75
2021/03/10 06:03:57;;;;;;;40.28;11.70;;;3.70;99.90;;;;;;4929111;29;20466;-75
2021/03/10 06:06:24;;;;;;;38.72;13.18;;;3.80;99.90;;;;;;4929787;29;20436;-74
2021/03/10 06:08:50;;;;;;;36.63;13.93;;;3.60;99.90;;;;;;4929447;29;20024;-74
2021/03/10 06:11:26;;;;;;;43.35;14.60;;;3.70;99.90;;;;;;4929456;29;20028;-74
2021/03/10 06:13:53;;;;;;;29.27;13.25;;;3.70;99.90;;;;;;4921335;29;20450;-73
2021/03/10 06:16:24;;;;;;;31.73;12.35;;;3.70;99.90;;;;;;4927755;29;20024;-74
2021/03/10 06:19:02;;;;;;;28.05;11.27;;;3.70;99.90;;;;;;4924459;29;20033;-74
2021/03/10 06:21:28;;;;;;;28.55;11.63;;;3.70;99.90;;;;;;4910699;29;20036;-73
2021/03/10 06:23:55;;;;;;;35.25;11.75;;;3.70;99.90;;;;;;4915640;29;20068;-74
2021/03/10 06:26:23;;;;;;;26.00;11.63;;;3.60;99.90;;;;;;4915649;29;20040;-73
2021/03/10 06:28:49;;;;;;;37.35;14.10;;;3.60;99.90;;;;;;4912636;29;20020;-74
2021/03/10 06:31:29;;;;;;;26.55;12.57;;;3.60;99.90;;;;;;4909784;29;20382;-73
2021/03/10 06:34:05;;;;;;;31.15;11.32;;;3.70;99.90;;;;;;4911767;29;20656;-74
2021/03/10 06:36:36;;;;;;;35.33;12.55;;;3.70;99.90;;;;;;4908443;29;20045;-74
2021/03/10 06:39:04;;;;;;;34.85;12.45;;;3.60;99.90;;;;;;4913251;29;20076;-74
2021/03/10 06:41:38;;;;;;;38.58;13.90;;;3.60;99.90;;;;;;4928796;29;20020;-74
2021/03/10 06:44:16;;;;;;;25.58;10.23;;;3.60;99.90;;;;;;4928810;29;20044;-75
2021/03/10 06:46:56;;;;;;;32.03;11.45;;;3.60;99.90;;;;;;4928056;29;20205;-75
2021/03/10 06:49:34;;;;;;;29.65;11.73;;;3.60;99.90;;;;;;4926486;29;20039;-75
2021/03/10 06:52:09;;;;;;;31.38;11.68;;;3.60;99.90;;;;;;4928631;29;20397;-77
2021/03/10 06:54:35;;;;;;;34.05;10.48;;;3.60;99.90;;;;;;4927933;29;20032;-75
2021/03/10 06:57:14;;;;;;;29.95;11.90;;;3.60;99.90;;;;;;4926668;29;20028;-75
2021/03/10 06:59:44;;;;;;;29.73;10.15;;;3.60;99.90;;;;;;4915520;29;20028;-75
2021/03/10 07:02:20;;;;;;;30.63;11.30;;;3.60;99.90;;;;;;4912528;29;20115;-75
2021/03/10 07:04:57;;;;;;;27.13;11.02;;;3.60;99.90;;;;;;4927731;29;20063;-74
2021/03/10 07:07:25;;;;;;;25.92;12.40;;;3.60;99.90;;;;;;4923437;29;20093;-75
2021/03/10 07:09:52;;;;;;;32.85;12.52;;;3.70;99.90;;;;;;4908892;29;20148;-75
2021/03/10 07:12:20;;;;;;;44.95;14.00;;;3.80;99.90;;;;;;4909285;29;20099;-74
2021/03/10 07:14:49;;;;;;;37.88;13.50;;;3.80;99.90;;;;;;4908864;29;20033;-75
2021/03/10 07:17:19;;;;;;;33.17;10.07;;;3.80;99.90;;;;;;4907699;29;20036;-76
2021/03/10 07:19:45;;;;;;;28.13;11.38;;;3.90;99.90;;;;;;4907689;29;20029;-75
2021/03/10 07:22:30;;;;;;;33.72;10.90;;;3.80;99.90;;;;;;4909561;29;20050;-75
2021/03/10 07:25:27;;;;;;;28.35;10.93;;;3.80;99.90;;;;;;4909290;29;20037;-75
2021/03/10 07:28:00;;;;;;;26.95;11.50;;;3.80;99.90;;;;;;4914202;28;20051;-75
2021/03/10 07:30:41;;;;;;;31.83;10.85;;;3.80;99.90;;;;;;4909408;29;20024;-76
2021/03/10 07:33:17;;;;;;;20.08;9.98;;;3.80;99.90;;;;;;4907949;29;20032;-74
2021/03/10 07:36:02;;;;;;;28.10;11.80;;;3.80;99.90;;;;;;4908778;29;20032;-75
2021/03/10 07:38:34;;;;;;;28.67;11.30;;;3.80;99.90;;;;;;4906654;29;20472;-75
2021/03/10 07:41:09;;;;;;;39.45;11.68;;;3.90;99.90;;;;;;4946118;29;20043;-74
2021/03/10 07:43:42;;;;;;;;;;;3.90;99.90;;;;;;4946611;28;20039;-76
2021/03/10 07:46:26;;;;;;;37.83;11.82;;;3.90;99.90;;;;;;4945191;29;19942;-76
2021/03/10 07:48:52;;;;;;;25.55;10.32;;;4.00;99.90;;;;;;4945002;29;20027;-74
2021/03/10 07:51:34;;;;;;;25.15;11.10;;;4.00;99.90;;;;;;4945535;29;20039;-74
2021/03/10 07:54:02;;;;;;;29.02;11.60;;;4.00;99.90;;;;;;4937970;28;20028;-74
2021/03/10 07:56:33;;;;;;;27.77;12.18;;;4.00;99.90;;;;;;4908943;29;20036;-74
2021/03/10 07:59:13;;;;;;;29.73;11.32;;;4.00;99.90;;;;;;4919503;29;20025;-76
2021/03/10 08:01:39;;;;;;;29.30;11.82;;;4.00;99.90;;;;;;4923973;29;20032;-74
2021/03/10 08:04:16;;;;;;;25.45;9.60;;;4.00;99.90;;;;;;4912155;29;20079;-76
2021/03/10 08:06:46;;;;;;;36.67;11.93;;;4.10;99.90;;;;;;4911065;29;20068;-75
2021/03/10 08:09:13;;;;;;;29.10;12.07;;;4.20;99.90;;;;;;4927117;29;20486;-75
2021/03/10 08:11:43;;;;;;;31.65;12.60;;;4.20;99.90;;;;;;4912301;29;20024;-75
2021/03/10 08:14:10;;;;;;;28.30;11.25;;;4.20;99.90;;;;;;4911629;29;20025;-75
2021/03/10 08:16:50;;;;;;;33.22;11.55;;;4.20;99.90;;;;;;4910986;29;20029;-75
2021/03/10 08:19:22;;;;;;;35.35;12.43;;;4.30;99.90;;;;;;4911323;29;20036;-75
2021/03/10 08:21:54;;;;;;;33.03;14.00;;;4.30;99.90;;;;;;4912560;29;20041;-74
2021/03/10 08:24:21;;;;;;;39.63;12.93;;;4.30;99.90;;;;;;4921493;29;20104;-74
2021/03/10 08:27:02;;;;;;;36.50;14.35;;;4.30;99.90;;;;;;4925282;29;20039;-74
2021/03/10 08:29:31;;;;;;;29.63;10.52;;;4.40;99.90;;;;;;4917526;29;20028;-75
2021/03/10 08:31:57;;;;;;;34.42;12.65;;;4.40;99.90;;;;;;4929763;29;20039;-74
2021/03/10 08:34:38;;;;;;;33.42;12.38;;;4.40;99.90;;;;;;4929699;29;20024;-73
2021/03/10 08:37:11;;;;;;;28.20;11.45;;;4.40;99.90;;;;;;4921045;29;20035;-76
2021/03/10 08:39:44;;;;;;;25.02;9.77;;;4.50;99.90;;;;;;4918850;29;20032;-74
2021/03/10 08:42:10;;;;;;;29.50;12.23;;;4.70;99.90;;;;;;4930278;29;20051;-75
2021/03/10 08:44:41;;;;;;;31.30;13.23;;;4.50;99.90;;;;;;4930867;29;20044;-75
2021/03/10 08:47:12;;;;;;;44.28;13.48;;;4.50;99.90;;;;;;4928420;29;20036;-75
2021/03/10 08:49:39;;;;;;;25.27;11.45;;;4.60;99.90;;;;;;4931335;29;20032;-74
2021/03/10 08:52:12;;;;;;;35.30;10.65;;;4.70;99.90;;;;;;4930211;29;20487;-76
2021/03/10 08:54:47;;;;;;;31.25;12.23;;;4.80;99.90;;;;;;4929708;29;20397;-76
2021/03/10 08:57:13;;;;;;;32.90;13.40;;;4.80;99.90;;;;;;4929603;29;20051;-75
2021/03/10 08:59:39;;;;;;;27.45;10.45;;;4.80;99.90;;;;;;4930118;29;20028;-75
2021/03/10 09:02:05;;;;;;;30.75;13.02;;;4.80;99.90;;;;;;4931046;29;20033;-75
2021/03/10 09:04:31;;;;;;;25.77;11.23;;;4.90;99.90;;;;;;4930453;29;20056;-74
2021/03/10 09:06:59;;;;;;;23.77;9.00;;;4.90;99.90;;;;;;4930129;29;20024;-75
2021/03/10 09:09:26;;;;;;;29.33;11.30;;;4.90;99.90;;;;;;4930654;29;20033;-75
2021/03/10 09:11:53;;;;;;;22.55;10.20;;;4.90;99.90;;;;;;4930566;29;20036;-75
2021/03/10 09:14:20;;;;;;;28.10;10.95;;;5.00;99.90;;;;;;4930764;29;20035;-74
2021/03/10 09:16:57;;;;;;;27.80;10.02;;;5.00;99.90;;;;;;4930539;29;20031;-75
2021/03/10 09:19:32;;;;;;;25.88;10.75;;;5.10;99.90;;;;;;4925550;29;20037;-74
2021/03/10 09:22:19;;;;;;;30.67;11.85;;;5.10;99.90;;;;;;4912634;29;20028;-75
2021/03/10 09:24:51;;;;;;;34.85;11.18;;;5.20;99.90;;;;;;4911094;29;20040;-73
2021/03/10 09:27:18;;;;;;;26.27;12.43;;;5.20;99.90;;;;;;4911352;29;20029;-75
2021/03/10 09:29:44;;;;;;;20.92;8.48;;;5.30;99.90;;;;;;4911646;29;20039;-74
2021/03/10 09:32:10;;;;;;;27.45;11.05;;;5.30;99.90;;;;;;4928411;29;20060;-74
2021/03/10 09:34:36;;;;;;;24.80;10.52;;;5.40;99.90;;;;;;4929872;29;20032;-75
2021/03/10 09:37:10;;;;;;;24.50;9.50;;;5.40;99.90;;;;;;4913389;29;20375;-75
2021/03/10 09:39:47;;;;;;;25.83;10.80;;;5.40;99.90;;;;;;4917900;29;20096;-75
2021/03/10 09:42:13;;;;;;;21.17;9.82;;;5.40;99.90;;;;;;4930003;29;20283;-76
2021/03/10 09:44:46;;;;;;;22.65;8.82;;;5.50;99.90;;;;;;4930019;29;20040;-75
2021/03/10 09:47:14;;;;;;;26.10;9.30;;;5.50;99.90;;;;;;4925466;29;20032;-76
2021/03/10 09:49:47;;;;;;;20.60;10.52;;;5.50;99.90;;;;;;4909100;29;20037;-74
2021/03/10 09:52:13;;;;;;;19.95;8.40;;;5.50;99.90;;;;;;4910901;29;20047;-71
2021/03/10 09:54:53;;;;;;;23.85;10.68;;;5.50;99.90;;;;;;4910639;29;20033;-75
2021/03/10 09:57:20;;;;;;;20.67;8.10;;;5.50;99.90;;;;;;4910822;29;20044;-76
2021/03/10 09:59:45;;;;;;;30.60;9.60;;;5.60;99.90;;;;;;4910438;29;20035;-75
2021/03/10 10:02:14;;;;;;;23.67;9.85;;;5.70;99.90;;;;;;4908812;29;20036;-75
2021/03/10 10:04:40;;;;;;;27.30;9.35;;;5.80;99.90;;;;;;4915090;29;20151;-74
2021/03/10 10:07:08;;;;;;;30.98;9.27;;;5.90;99.90;;;;;;4928315;29;20043;-73
2021/03/10 10:09:34;;;;;;;26.48;10.45;;;5.90;99.90;;;;;;4926113;29;20020;-75
2021/03/10 10:11:59;;;;;;;16.23;6.90;;;6.00;99.90;;;;;;4928682;29;20115;-74
2021/03/10 10:14:25;;;;;;;28.17;9.20;;;6.00;99.90;;;;;;4929554;29;20035;-75
2021/03/10 10:16:51;;;;;;;27.42;11.07;;;6.10;99.90;;;;;;4929540;29;20035;-74
2021/03/10 10:19:16;;;;;;;30.30;11.02;;;6.30;99.90;;;;;;4929062;29;20038;-76
2021/03/10 10:21:46;;;;;;;21.30;8.75;;;6.60;99.90;;;;;;4927773;29;20036;-73
2021/03/10 10:24:13;;;;;;;27.33;11.07;;;6.90;99.90;;;;;;4928765;29;20097;-72
2021/03/10 10:26:39;;;;;;;31.27;11.32;;;7.10;99.90;;;;;;4911552;29;20029;-74
2021/03/10 10:29:04;;;;;;;33.08;10.15;;;7.20;99.90;;;;;;4910118;29;20035;-72
2021/03/10 10:31:30;;;;;;;38.58;10.27;;;7.10;99.90;;;;;;4910069;29;20035;-74
2021/03/10 10:33:55;;;;;;;29.98;10.73;;;7.10;99.90;;;;;;4910142;29;20357;-72
2021/03/10 10:36:21;;;;;;;39.90;11.73;;;7.00;99.90;;;;;;4909740;29;20513;-71
2021/03/10 10:38:46;;;;;;;30.88;11.68;;;7.10;99.90;;;;;;4909785;29;20033;-74
2021/03/10 10:41:12;;;;;;;31.85;11.55;;;7.20;99.90;;;;;;4909710;29;20039;-75
2021/03/10 10:43:38;;;;;;;30.88;9.90;;;7.20;99.90;;;;;;4909648;29;20068;-75
2021/03/10 10:46:04;;;;;;;31.45;12.00;;;7.20;99.90;;;;;;4910044;29;20056;-73
2021/03/10 10:48:30;;;;;;;30.40;11.65;;;7.30;99.90;;;;;;4924314;29;20394;-74
2021/03/10 10:50:55;;;;;;;36.28;11.75;;;7.30;99.90;;;;;;4909501;29;20692;-72
2021/03/10 10:53:21;;;;;;;32.88;11.55;;;7.40;99.90;;;;;;4909881;29;20063;-73
2021/03/10 10:55:46;;;;;;;30.30;10.73;;;7.50;99.90;;;;;;4909592;29;20036;-75
2021/03/10 10:58:12;;;;;;;27.15;10.98;;;7.50;99.90;;;;;;4923744;29;20096;-74
2021/03/10 11:00:38;;;;;;;23.63;10.38;;;7.60;99.90;;;;;;4909440;29;20029;-75
2021/03/10 11:03:04;;;;;;;20.25;8.82;;;7.70;99.90;;;;;;4906124;29;20052;-74
2021/03/10 11:05:30;;;;;;;33.90;11.02;;;7.80;99.90;;;;;;4908099;29;20116;-72
2021/03/10 11:07:55;;;;;;;26.77;9.38;;;7.70;99.90;;;;;;4924080;29;20063;-75
2021/03/10 11:10:21;;;;;;;29.48;10.45;;;7.60;99.90;;;;;;4908879;29;20036;-74
2021/03/10 11:12:47;;;;;;;18.15;8.05;;;7.60;99.90;;;;;;4909423;29;20025;-74
2021/03/10 11:15:13;;;;;;;17.92;8.05;;;7.70;99.90;;;;;;4908888;29;20040;-71
2021/03/10 11:17:38;;;;;;;21.15;10.30;;;7.70;99.90;;;;;;4909218;29;20044;-73
2021/03/10 11:20:06;;;;;;;33.30;10.13;;;7.70;99.90;;;;;;4909226;29;20092;-73
2021/03/10 11:22:32;;;;;;;30.88;10.48;;;7.70;99.90;;;;;;4909204;29;20106;-74
2021/03/10 11:24:57;;;;;;;24.00;9.65;;;7.70;99.90;;;;;;4909310;29;20049;-74
2021/03/10 11:27:24;;;;;;;24.05;10.68;;;7.80;99.90;;;;;;4908040;29;20036;-71
2021/03/10 11:29:50;;;;;;;21.38;9.57;;;7.80;99.90;;;;;;4909357;29;20032;-74
2021/03/10 11:32:16;;;;;;;18.75;8.82;;;7.80;99.90;;;;;;4911621;29;20029;-73
2021/03/10 11:34:41;;;;;;;24.48;10.63;;;7.80;99.90;;;;;;4916490;29;20028;-74
2021/03/10 11:37:08;;;;;;;19.40;8.07;;;7.70;99.90;;;;;;4920682;29;20020;-74
2021/03/10 11:39:35;;;;;;;15.43;6.80;;;7.70;99.90;;;;;;4913529;29;20470;-72
2021/03/10 11:42:01;;;;;;;15.80;6.55;;;7.70;99.90;;;;;;4912612;29;20032;-72
2021/03/10 11:44:26;;;;;;;19.65;7.53;;;7.60;99.90;;;;;;4912889;29;20069;-71
2021/03/10 11:46:55;;;;;;;20.15;7.43;;;7.50;99.90;;;;;;4912964;29;20029;-71
2021/03/10 11:49:22;;;;;;;16.75;7.57;;;7.50;99.90;;;;;;4912813;29;20037;-73
2021/03/10 11:51:47;;;;;;;15.25;7.05;;;7.50;99.90;;;;;;4913237;29;20035;-73
2021/03/10 11:54:13;;;;;;;23.60;8.43;;;7.40;99.90;;;;;;4911541;29;20119;-74
2021/03/10 11:56:39;;;;;;;18.45;9.32;;;7.50;99.90;;;;;;4912327;29;20061;-73
2021/03/10 11:59:05;;;;;;;14.45;6.97;;;7.60;99.90;;;;;;4912901;29;20032;-71
2021/03/10 12:01:31;;;;;;;20.67;7.38;;;7.70;99.90;;;;;;4912629;29;20047;-74
2021/03/10 12:03:57;;;;;;;20.50;9.00;;;7.80;99.90;;;;;;4911277;29;20119;-75
2021/03/10 12:06:24;;;;;;;22.45;8.57;;;8.00;99.90;;;;;;4926812;29;20490;-73
2021/03/10 12:08:49;;;;;;;21.48;8.55;;;8.10;99.90;;;;;;4912472;29;20055;-73
2021/03/10 12:11:15;;;;;;;17.80;8.68;;;8.30;99.90;;;;;;4912537;29;20486;-74
2021/03/10 12:13:41;;;;;;;14.27;7.22;;;8.30;99.90;;;;;;4912539;29;20032;-74
2021/03/10 12:16:06;;;;;;;18.20;8.10;;;8.30;99.90;;;;;;4912372;29;20084;-73
2021/03/10 12:18:32;;;;;;;19.40;8.02;;;8.20;99.90;;;;;;4912534;29;20041;-76
2021/03/10 12:20:57;;;;;;;20.17;7.78;;;8.10;99.90;;;;;;4912309;29;20116;-73
2021/03/10 12:23:23;;;;;;;22.73;8.50;;;8.10;99.90;;;;;;4912300;29;20513;-73
2021/03/10 12:25:48;;;;;;;17.88;7.65;;;8.10;99.90;;;;;;4910976;29;20096;-73
2021/03/10 12:28:14;;;;;;;19.90;7.90;;;8.10;99.90;;;;;;4910700;29;20032;-72
2021/03/10 12:30:40;;;;;;;17.20;7.80;;;8.10;99.90;;;;;;4912190;29;20064;-73
2021/03/10 12:33:06;;;;;;;17.05;8.05;;;8.10;99.90;;;;;;4926944;29;20065;-74
2021/03/10 12:35:33;;;;;;;15.82;8.02;;;8.00;99.90;;;;;;4911916;29;20037;-75
2021/03/10 12:37:58;;;;;;;18.40;7.88;;;7.90;99.90;;;;;;4912229;29;20025;-74
2021/03/10 12:40:25;;;;;;;17.27;7.00;;;7.90;99.90;;;;;;4910747;29;20091;-73
2021/03/10 12:42:51;;;;;;;21.10;7.75;;;7.90;99.90;;;;;;4911362;29;20032;-72
2021/03/10 12:45:18;;;;;;;18.52;8.52;;;7.80;99.90;;;;;;4911849;29;20092;-74